sensor_id;sensor_type;location;lat;lon;timestamp;P1;durP1;ratioP1;P2;durP2;ratioP2
2972;SDS011;1496;51.404;7.232;2022-10-16T00:01:47;4.07;;;1.80;;
2972;SDS011;1496;51.404;7.232;2022-10-16T00:04:13;2.10;;;1.70;;
2972;SDS011;1496;51.404;7.232;2022-10-16T00:06:39;4.10;;;2.30;;
2972;SDS011;1496;51.404;7.232;2022-10-16T00:09:05;4.90;;;2.20;;
2972;SDS011;1496;51.404;7.232;2022-10-16T00:11:32;6.40;;;1.77;;
2972;SDS011;1496;51.404;7.232;2022-10-16T00:14:02;3.30;;;1.80;;
2972;SDS011;1496;51.404;7.232;2022-10-16T00:16:29;3.20;;;1.90;;
2972;SDS011;1496;51.404;7.232;2022-10-16T00:18:55;2.60;;;1.50;;
2972;SDS011;1496;51.404;7.232;2022-10-16T00:21:22;6.50;;;1.93;;
2972;SDS011;1496;51.404;7.232;2022-10-16T00:23:53;2.83;;;1.50;;
2972;SDS011;1496;51.404;7.232;2022-10-16T00:26:21;3.17;;;1.63;;
2972;SDS011;1496;51.404;7.232;2022-10-16T00:28:48;4.80;;;2.20;;
2972;SDS011;1496;51.404;7.232;2022-10-16T00:31:15;3.50;;;1.73;;
2972;SDS011;1496;51.404;7.232;2022-10-16T00:33:42;4.43;;;1.47;;
2972;SDS011;1496;51.404;7.232;2022-10-16T00:36:12;2.30;;;1.63;;
2972;SDS011;1496;51.404;7.232;2022-10-16T00:38:39;2.23;;;1.27;;
2972;SDS011;1496;51.404;7.232;2022-10-16T00:41:06;7.03;;;2.23;;
2972;SDS011;1496;51.404;7.232;2022-10-16T00:43:56;5.87;;;2.20;;
2972;SDS011;1496;51.404;7.232;2022-10-16T00:46:22;4.10;;;1.60;;
2972;SDS011;1496;51.404;7.232;2022-10-16T00:51:22;2.80;;;1.43;;
2972;SDS011;1496;51.404;7.232;2022-10-16T00:53:51;2.50;;;1.27;;
2972;SDS011;1496;51.404;7.232;2022-10-16T00:56:17;5.70;;;1.67;;
2972;SDS011;1496;51.404;7.232;2022-10-16T00:58:43;6.97;;;1.60;;
2972;SDS011;1496;51.404;7.232;2022-10-16T01:01:09;2.70;;;1.57;;
2972;SDS011;1496;51.404;7.232;2022-10-16T01:03:36;2.07;;;1.30;;
2972;SDS011;1496;51.404;7.232;2022-10-16T01:08:57;3.73;;;1.90;;
2972;SDS011;1496;51.404;7.232;2022-10-16T01:14:34;2.60;;;1.40;;
2972;SDS011;1496;51.404;7.232;2022-10-16T01:22:58;2.57;;;1.50;;
2972;SDS011;1496;51.404;7.232;2022-10-16T01:25:49;5.43;;;1.63;;
2972;SDS011;1496;51.404;7.232;2022-10-16T01:28:22;3.30;;;1.47;;
2972;SDS011;1496;51.404;7.232;2022-10-16T01:30:55;1.90;;;1.40;;
2972;SDS011;1496;51.404;7.232;2022-10-16T01:33:24;5.27;;;2.07;;
2972;SDS011;1496;51.404;7.232;2022-10-16T01:35:56;5.53;;;1.70;;
2972;SDS011;1496;51.404;7.232;2022-10-16T01:38:46;2.17;;;1.97;;
2972;SDS011;1496;51.404;7.232;2022-10-16T01:41:17;3.50;;;1.53;;
2972;SDS011;1496;51.404;7.232;2022-10-16T01:43:53;1.67;;;1.37;;
2972;SDS011;1496;51.404;7.232;2022-10-16T01:46:35;6.87;;;1.80;;
2972;SDS011;1496;51.404;7.232;2022-10-16T01:49:04;2.60;;;1.53;;
2972;SDS011;1496;51.404;7.232;2022-10-16T01:51:31;5.00;;;1.70;;
2972;SDS011;1496;51.404;7.232;2022-10-16T01:53:59;4.10;;;1.50;;
2972;SDS011;1496;51.404;7.232;2022-10-16T01:56:26;3.53;;;1.63;;
2972;SDS011;1496;51.404;7.232;2022-10-16T01:58:55;4.33;;;1.70;;
2972;SDS011;1496;51.404;7.232;2022-10-16T02:01:26;2.50;;;1.70;;
2972;SDS011;1496;51.404;7.232;2022-10-16T02:03:57;2.97;;;2.00;;
2972;SDS011;1496;51.404;7.232;2022-10-16T02:06:27;2.63;;;1.43;;
2972;SDS011;1496;51.404;7.232;2022-10-16T02:08:54;3.33;;;1.87;;
2972;SDS011;1496;51.404;7.232;2022-10-16T02:11:20;4.63;;;1.40;;
2972;SDS011;1496;51.404;7.232;2022-10-16T02:13:53;2.83;;;2.10;;
2972;SDS011;1496;51.404;7.232;2022-10-16T02:16:31;2.87;;;1.67;;
2972;SDS011;1496;51.404;7.232;2022-10-16T02:19:10;2.23;;;1.57;;
2972;SDS011;1496;51.404;7.232;2022-10-16T02:24:26;4.53;;;1.40;;
2972;SDS011;1496;51.404;7.232;2022-10-16T02:29:54;4.90;;;1.57;;
2972;SDS011;1496;51.404;7.232;2022-10-16T02:32:33;3.30;;;1.50;;
2972;SDS011;1496;51.404;7.232;2022-10-16T02:35:01;3.63;;;1.67;;
2972;SDS011;1496;51.404;7.232;2022-10-16T02:37:27;1.70;;;1.20;;
2972;SDS011;1496;51.404;7.232;2022-10-16T02:39:54;2.20;;;1.60;;
2972;SDS011;1496;51.404;7.232;2022-10-16T02:42:27;4.50;;;1.60;;
2972;SDS011;1496;51.404;7.232;2022-10-16T02:44:57;3.50;;;1.17;;
2972;SDS011;1496;51.404;7.232;2022-10-16T02:47:23;5.10;;;1.70;;
2972;SDS011;1496;51.404;7.232;2022-10-16T02:49:48;3.57;;;1.30;;
2972;SDS011;1496;51.404;7.232;2022-10-16T02:52:14;1.93;;;1.13;;
2972;SDS011;1496;51.404;7.232;2022-10-16T02:54:40;3.53;;;1.40;;
2972;SDS011;1496;51.404;7.232;2022-10-16T02:57:06;4.40;;;1.50;;
2972;SDS011;1496;51.404;7.232;2022-10-16T02:59:32;2.40;;;1.57;;
2972;SDS011;1496;51.404;7.232;2022-10-16T03:02:00;3.60;;;1.40;;
2972;SDS011;1496;51.404;7.232;2022-10-16T03:04:26;2.40;;;1.40;;
2972;SDS011;1496;51.404;7.232;2022-10-16T03:06:52;3.03;;;1.20;;
2972;SDS011;1496;51.404;7.232;2022-10-16T03:09:17;2.17;;;1.37;;
2972;SDS011;1496;51.404;7.232;2022-10-16T03:11:43;1.97;;;1.23;;
2972;SDS011;1496;51.404;7.232;2022-10-16T03:14:09;3.10;;;1.17;;
2972;SDS011;1496;51.404;7.232;2022-10-16T03:16:34;3.97;;;1.33;;
2972;SDS011;1496;51.404;7.232;2022-10-16T03:19:00;1.50;;;0.90;;
2972;SDS011;1496;51.404;7.232;2022-10-16T03:21:26;2.70;;;1.10;;
2972;SDS011;1496;51.404;7.232;2022-10-16T03:23:52;5.77;;;1.20;;
2972;SDS011;1496;51.404;7.232;2022-10-16T03:26:17;5.10;;;1.20;;
2972;SDS011;1496;51.404;7.232;2022-10-16T03:28:43;3.20;;;1.30;;
2972;SDS011;1496;51.404;7.232;2022-10-16T03:31:09;3.80;;;1.37;;
2972;SDS011;1496;51.404;7.232;2022-10-16T03:33:34;8.23;;;1.70;;
2972;SDS011;1496;51.404;7.232;2022-10-16T03:36:00;7.70;;;1.37;;
2972;SDS011;1496;51.404;7.232;2022-10-16T03:38:26;4.43;;;1.20;;
2972;SDS011;1496;51.404;7.232;2022-10-16T03:40:51;3.70;;;1.40;;
2972;SDS011;1496;51.404;7.232;2022-10-16T03:43:17;4.83;;;1.10;;
2972;SDS011;1496;51.404;7.232;2022-10-16T03:45:43;4.27;;;1.67;;
2972;SDS011;1496;51.404;7.232;2022-10-16T03:48:08;3.17;;;1.00;;
2972;SDS011;1496;51.404;7.232;2022-10-16T03:50:34;13.50;;;1.90;;
2972;SDS011;1496;51.404;7.232;2022-10-16T03:53:00;3.80;;;1.10;;
2972;SDS011;1496;51.404;7.232;2022-10-16T03:55:25;8.50;;;1.53;;
2972;SDS011;1496;51.404;7.232;2022-10-16T03:57:51;4.43;;;1.40;;
2972;SDS011;1496;51.404;7.232;2022-10-16T04:00:17;3.90;;;1.10;;
2972;SDS011;1496;51.404;7.232;2022-10-16T04:02:42;5.30;;;1.37;;
2972;SDS011;1496;51.404;7.232;2022-10-16T04:05:08;3.97;;;1.20;;
2972;SDS011;1496;51.404;7.232;2022-10-16T04:07:34;3.97;;;1.07;;
2972;SDS011;1496;51.404;7.232;2022-10-16T04:10:00;3.90;;;1.03;;
2972;SDS011;1496;51.404;7.232;2022-10-16T04:12:26;5.17;;;1.17;;
2972;SDS011;1496;51.404;7.232;2022-10-16T04:14:52;5.20;;;1.10;;
2972;SDS011;1496;51.404;7.232;2022-10-16T04:17:21;4.07;;;1.03;;
2972;SDS011;1496;51.404;7.232;2022-10-16T04:19:46;4.77;;;1.30;;
2972;SDS011;1496;51.404;7.232;2022-10-16T04:22:12;5.07;;;1.47;;
2972;SDS011;1496;51.404;7.232;2022-10-16T04:24:37;4.43;;;1.20;;
2972;SDS011;1496;51.404;7.232;2022-10-16T04:27:03;6.07;;;1.20;;
2972;SDS011;1496;51.404;7.232;2022-10-16T04:29:29;10.00;;;1.27;;
2972;SDS011;1496;51.404;7.232;2022-10-16T04:31:55;3.47;;;1.00;;
2972;SDS011;1496;51.404;7.232;2022-10-16T04:34:20;4.43;;;1.13;;
2972;SDS011;1496;51.404;7.232;2022-10-16T04:36:49;4.60;;;1.30;;
2972;SDS011;1496;51.404;7.232;2022-10-16T04:39:15;9.53;;;1.50;;
2972;SDS011;1496;51.404;7.232;2022-10-16T04:41:41;3.43;;;1.17;;
2972;SDS011;1496;51.404;7.232;2022-10-16T04:44:07;3.00;;;0.97;;
2972;SDS011;1496;51.404;7.232;2022-10-16T04:46:33;3.73;;;1.30;;
2972;SDS011;1496;51.404;7.232;2022-10-16T04:48:58;3.33;;;1.20;;
2972;SDS011;1496;51.404;7.232;2022-10-16T04:51:24;5.17;;;1.07;;
2972;SDS011;1496;51.404;7.232;2022-10-16T04:53:51;2.90;;;1.40;;
2972;SDS011;1496;51.404;7.232;2022-10-16T04:56:16;2.80;;;1.07;;
2972;SDS011;1496;51.404;7.232;2022-10-16T04:58:42;3.93;;;1.50;;
2972;SDS011;1496;51.404;7.232;2022-10-16T05:01:08;3.67;;;1.13;;
2972;SDS011;1496;51.404;7.232;2022-10-16T05:03:33;4.10;;;1.30;;
2972;SDS011;1496;51.404;7.232;2022-10-16T05:05:59;5.00;;;1.80;;
2972;SDS011;1496;51.404;7.232;2022-10-16T05:08:25;4.00;;;1.50;;
2972;SDS011;1496;51.404;7.232;2022-10-16T05:10:51;6.73;;;1.50;;
2972;SDS011;1496;51.404;7.232;2022-10-16T05:13:16;3.37;;;1.47;;
2972;SDS011;1496;51.404;7.232;2022-10-16T05:15:46;3.73;;;1.20;;
2972;SDS011;1496;51.404;7.232;2022-10-16T05:18:13;4.90;;;1.33;;
2972;SDS011;1496;51.404;7.232;2022-10-16T05:20:38;3.60;;;1.53;;
2972;SDS011;1496;51.404;7.232;2022-10-16T05:23:04;4.57;;;1.20;;
2972;SDS011;1496;51.404;7.232;2022-10-16T05:25:30;5.97;;;1.70;;
2972;SDS011;1496;51.404;7.232;2022-10-16T05:27:56;5.20;;;1.33;;
2972;SDS011;1496;51.404;7.232;2022-10-16T05:30:21;3.57;;;1.20;;
2972;SDS011;1496;51.404;7.232;2022-10-16T05:32:47;3.00;;;1.10;;
2972;SDS011;1496;51.404;7.232;2022-10-16T05:35:14;2.77;;;1.03;;
2972;SDS011;1496;51.404;7.232;2022-10-16T05:37:40;3.43;;;1.10;;
2972;SDS011;1496;51.404;7.232;2022-10-16T05:40:07;1.93;;;1.20;;
2972;SDS011;1496;51.404;7.232;2022-10-16T05:42:33;5.03;;;1.60;;
2972;SDS011;1496;51.404;7.232;2022-10-16T05:44:58;2.97;;;1.50;;
2972;SDS011;1496;51.404;7.232;2022-10-16T05:47:24;2.63;;;1.33;;
2972;SDS011;1496;51.404;7.232;2022-10-16T05:49:50;2.10;;;1.30;;
2972;SDS011;1496;51.404;7.232;2022-10-16T05:52:16;1.57;;;1.10;;
2972;SDS011;1496;51.404;7.232;2022-10-16T05:54:42;2.47;;;1.40;;
2972;SDS011;1496;51.404;7.232;2022-10-16T05:57:08;4.43;;;1.30;;
2972;SDS011;1496;51.404;7.232;2022-10-16T05:59:34;1.57;;;1.43;;
2972;SDS011;1496;51.404;7.232;2022-10-16T06:02:00;1.93;;;1.53;;
2972;SDS011;1496;51.404;7.232;2022-10-16T06:04:25;3.33;;;1.60;;
2972;SDS011;1496;51.404;7.232;2022-10-16T06:06:51;2.27;;;1.30;;
2972;SDS011;1496;51.404;7.232;2022-10-16T06:09:17;4.63;;;1.30;;
2972;SDS011;1496;51.404;7.232;2022-10-16T06:11:42;3.17;;;1.33;;
2972;SDS011;1496;51.404;7.232;2022-10-16T06:14:08;1.80;;;1.17;;
2972;SDS011;1496;51.404;7.232;2022-10-16T06:16:34;1.60;;;1.17;;
2972;SDS011;1496;51.404;7.232;2022-10-16T06:19:01;3.40;;;1.30;;
2972;SDS011;1496;51.404;7.232;2022-10-16T06:21:31;2.07;;;1.23;;
2972;SDS011;1496;51.404;7.232;2022-10-16T06:23:57;1.70;;;1.27;;
2972;SDS011;1496;51.404;7.232;2022-10-16T06:26:24;2.10;;;1.33;;
2972;SDS011;1496;51.404;7.232;2022-10-16T06:28:57;3.03;;;1.60;;
2972;SDS011;1496;51.404;7.232;2022-10-16T06:31:24;2.83;;;1.50;;
2972;SDS011;1496;51.404;7.232;2022-10-16T06:33:55;2.03;;;1.20;;
2972;SDS011;1496;51.404;7.232;2022-10-16T06:36:22;2.60;;;1.53;;
2972;SDS011;1496;51.404;7.232;2022-10-16T06:38:49;1.70;;;1.40;;
2972;SDS011;1496;51.404;7.232;2022-10-16T06:41:16;2.23;;;1.50;;
2972;SDS011;1496;51.404;7.232;2022-10-16T06:43:43;6.53;;;1.30;;
2972;SDS011;1496;51.404;7.232;2022-10-16T06:46:11;2.57;;;1.30;;
2972;SDS011;1496;51.404;7.232;2022-10-16T06:48:38;2.63;;;1.90;;
2972;SDS011;1496;51.404;7.232;2022-10-16T06:51:11;5.67;;;1.20;;
2972;SDS011;1496;51.404;7.232;2022-10-16T06:53:40;5.00;;;1.93;;
2972;SDS011;1496;51.404;7.232;2022-10-16T06:56:08;2.50;;;1.30;;
2972;SDS011;1496;51.404;7.232;2022-10-16T06:58:35;1.60;;;1.40;;
2972;SDS011;1496;51.404;7.232;2022-10-16T07:01:04;2.63;;;1.47;;
2972;SDS011;1496;51.404;7.232;2022-10-16T07:03:30;3.17;;;1.20;;
2972;SDS011;1496;51.404;7.232;2022-10-16T07:05:56;2.70;;;1.40;;
2972;SDS011;1496;51.404;7.232;2022-10-16T07:08:26;1.87;;;1.33;;
2972;SDS011;1496;51.404;7.232;2022-10-16T07:11:13;3.47;;;1.50;;
2972;SDS011;1496;51.404;7.232;2022-10-16T07:13:39;1.77;;;1.40;;
2972;SDS011;1496;51.404;7.232;2022-10-16T07:16:10;2.00;;;1.43;;
2972;SDS011;1496;51.404;7.232;2022-10-16T07:18:37;2.50;;;1.50;;
2972;SDS011;1496;51.404;7.232;2022-10-16T07:23:31;4.53;;;2.00;;
2972;SDS011;1496;51.404;7.232;2022-10-16T07:25:57;2.30;;;1.27;;
2972;SDS011;1496;51.404;7.232;2022-10-16T07:28:23;2.37;;;1.37;;
2972;SDS011;1496;51.404;7.232;2022-10-16T07:30:48;3.30;;;1.77;;
2972;SDS011;1496;51.404;7.232;2022-10-16T07:33:14;2.53;;;1.67;;
2972;SDS011;1496;51.404;7.232;2022-10-16T07:35:52;4.07;;;1.43;;
2972;SDS011;1496;51.404;7.232;2022-10-16T07:38:19;2.63;;;1.50;;
2972;SDS011;1496;51.404;7.232;2022-10-16T07:40:46;4.20;;;1.80;;
2972;SDS011;1496;51.404;7.232;2022-10-16T07:43:12;3.13;;;1.47;;
2972;SDS011;1496;51.404;7.232;2022-10-16T07:45:47;6.27;;;1.40;;
2972;SDS011;1496;51.404;7.232;2022-10-16T07:48:14;2.50;;;1.60;;
2972;SDS011;1496;51.404;7.232;2022-10-16T07:50:41;1.50;;;1.30;;
2972;SDS011;1496;51.404;7.232;2022-10-16T07:53:06;2.13;;;1.50;;
2972;SDS011;1496;51.404;7.232;2022-10-16T07:55:32;3.07;;;1.50;;
2972;SDS011;1496;51.404;7.232;2022-10-16T07:57:58;3.63;;;1.40;;
2972;SDS011;1496;51.404;7.232;2022-10-16T08:00:24;2.43;;;1.47;;
2972;SDS011;1496;51.404;7.232;2022-10-16T08:02:49;2.43;;;1.77;;
2972;SDS011;1496;51.404;7.232;2022-10-16T08:05:15;2.97;;;1.70;;
2972;SDS011;1496;51.404;7.232;2022-10-16T08:07:41;3.50;;;1.70;;
2972;SDS011;1496;51.404;7.232;2022-10-16T08:10:19;3.90;;;1.93;;
2972;SDS011;1496;51.404;7.232;2022-10-16T08:12:46;2.23;;;1.70;;
2972;SDS011;1496;51.404;7.232;2022-10-16T08:15:12;3.10;;;1.67;;
2972;SDS011;1496;51.404;7.232;2022-10-16T08:17:38;3.17;;;1.63;;
2972;SDS011;1496;51.404;7.232;2022-10-16T08:20:07;2.67;;;1.63;;
2972;SDS011;1496;51.404;7.232;2022-10-16T08:22:33;5.93;;;2.33;;
2972;SDS011;1496;51.404;7.232;2022-10-16T08:24:59;4.50;;;1.97;;
2972;SDS011;1496;51.404;7.232;2022-10-16T08:27:24;6.50;;;1.80;;
2972;SDS011;1496;51.404;7.232;2022-10-16T08:29:50;5.80;;;1.77;;
2972;SDS011;1496;51.404;7.232;2022-10-16T08:32:16;4.10;;;1.73;;
2972;SDS011;1496;51.404;7.232;2022-10-16T08:34:42;5.30;;;1.80;;
2972;SDS011;1496;51.404;7.232;2022-10-16T08:37:07;6.57;;;2.00;;
2972;SDS011;1496;51.404;7.232;2022-10-16T08:39:36;5.00;;;1.83;;
2972;SDS011;1496;51.404;7.232;2022-10-16T08:47:50;12.17;;;1.70;;
2972;SDS011;1496;51.404;7.232;2022-10-16T08:50:30;14.30;;;1.47;;
2972;SDS011;1496;51.404;7.232;2022-10-16T08:52:57;13.23;;;1.67;;
2972;SDS011;1496;51.404;7.232;2022-10-16T08:57:55;17.20;;;1.50;;
2972;SDS011;1496;51.404;7.232;2022-10-16T09:00:21;20.83;;;1.43;;
2972;SDS011;1496;51.404;7.232;2022-10-16T09:02:50;21.00;;;1.40;;
2972;SDS011;1496;51.404;7.232;2022-10-16T09:13:36;20.90;;;1.20;;
2972;SDS011;1496;51.404;7.232;2022-10-16T09:16:30;22.80;;;1.50;;
2972;SDS011;1496;51.404;7.232;2022-10-16T09:19:05;22.90;;;1.60;;
2972;SDS011;1496;51.404;7.232;2022-10-16T09:21:42;22.83;;;1.17;;
2972;SDS011;1496;51.404;7.232;2022-10-16T09:24:12;21.30;;;1.23;;
2972;SDS011;1496;51.404;7.232;2022-10-16T09:26:40;20.60;;;1.30;;
2972;SDS011;1496;51.404;7.232;2022-10-16T09:29:08;21.00;;;1.30;;
2972;SDS011;1496;51.404;7.232;2022-10-16T09:31:49;27.43;;;2.33;;
2972;SDS011;1496;51.404;7.232;2022-10-16T09:36:49;21.40;;;1.30;;
2972;SDS011;1496;51.404;7.232;2022-10-16T09:39:15;20.50;;;1.20;;
2972;SDS011;1496;51.404;7.232;2022-10-16T09:41:42;18.10;;;1.50;;
2972;SDS011;1496;51.404;7.232;2022-10-16T09:44:28;21.23;;;1.20;;
2972;SDS011;1496;51.404;7.232;2022-10-16T09:49:27;22.20;;;1.70;;
2972;SDS011;1496;51.404;7.232;2022-10-16T09:52:03;22.80;;;1.93;;
2972;SDS011;1496;51.404;7.232;2022-10-16T09:54:30;19.73;;;1.23;;
2972;SDS011;1496;51.404;7.232;2022-10-16T09:57:04;26.17;;;1.80;;
2972;SDS011;1496;51.404;7.232;2022-10-16T09:59:31;18.33;;;1.13;;
2972;SDS011;1496;51.404;7.232;2022-10-16T10:02:00;16.73;;;1.30;;
2972;SDS011;1496;51.404;7.232;2022-10-16T10:04:37;14.97;;;1.13;;
2972;SDS011;1496;51.404;7.232;2022-10-16T10:07:16;14.63;;;1.40;;
2972;SDS011;1496;51.404;7.232;2022-10-16T10:09:49;13.30;;;1.47;;
2972;SDS011;1496;51.404;7.232;2022-10-16T10:14:47;14.57;;;1.07;;
2972;SDS011;1496;51.404;7.232;2022-10-16T10:17:19;12.90;;;1.10;;
2972;SDS011;1496;51.404;7.232;2022-10-16T10:22:28;4.43;;;1.00;;
2972;SDS011;1496;51.404;7.232;2022-10-16T10:25:12;1.70;;;0.80;;
2972;SDS011;1496;51.404;7.232;2022-10-16T10:30:24;3.20;;;0.97;;
2972;SDS011;1496;51.404;7.232;2022-10-16T10:39:00;1.57;;;0.67;;
2972;SDS011;1496;51.404;7.232;2022-10-16T10:41:53;2.17;;;1.10;;
2972;SDS011;1496;51.404;7.232;2022-10-16T10:44:34;1.70;;;0.80;;
2972;SDS011;1496;51.404;7.232;2022-10-16T10:49:54;5.30;;;1.00;;
2972;SDS011;1496;51.404;7.232;2022-10-16T10:52:43;2.90;;;0.90;;
2972;SDS011;1496;51.404;7.232;2022-10-16T10:55:48;3.10;;;0.63;;
2972;SDS011;1496;51.404;7.232;2022-10-16T10:58:29;4.23;;;0.80;;
2972;SDS011;1496;51.404;7.232;2022-10-16T11:01:22;2.47;;;0.70;;
2972;SDS011;1496;51.404;7.232;2022-10-16T11:06:59;2.23;;;0.73;;
2972;SDS011;1496;51.404;7.232;2022-10-16T11:12:05;2.73;;;0.77;;
2972;SDS011;1496;51.404;7.232;2022-10-16T11:14:49;3.23;;;0.80;;
2972;SDS011;1496;51.404;7.232;2022-10-16T11:17:35;1.53;;;0.80;;
2972;SDS011;1496;51.404;7.232;2022-10-16T11:20:20;2.70;;;0.90;;
2972;SDS011;1496;51.404;7.232;2022-10-16T11:23:05;3.97;;;0.80;;
2972;SDS011;1496;51.404;7.232;2022-10-16T11:25:39;3.77;;;0.93;;
2972;SDS011;1496;51.404;7.232;2022-10-16T11:28:14;2.17;;;0.70;;
2972;SDS011;1496;51.404;7.232;2022-10-16T11:30:55;2.90;;;0.80;;
2972;SDS011;1496;51.404;7.232;2022-10-16T11:33:42;2.37;;;0.90;;
2972;SDS011;1496;51.404;7.232;2022-10-16T11:36:16;2.43;;;1.00;;
2972;SDS011;1496;51.404;7.232;2022-10-16T11:47:14;4.30;;;1.07;;
2972;SDS011;1496;51.404;7.232;2022-10-16T11:50:25;2.77;;;0.70;;
2972;SDS011;1496;51.404;7.232;2022-10-16T11:55:34;4.53;;;1.07;;
2972;SDS011;1496;51.404;7.232;2022-10-16T11:58:04;13.73;;;2.03;;
2972;SDS011;1496;51.404;7.232;2022-10-16T12:00:40;2.13;;;0.70;;
2972;SDS011;1496;51.404;7.232;2022-10-16T12:08:10;5.17;;;0.80;;
2972;SDS011;1496;51.404;7.232;2022-10-16T12:10:39;2.80;;;0.90;;
2972;SDS011;1496;51.404;7.232;2022-10-16T12:18:38;8.40;;;1.27;;
2972;SDS011;1496;51.404;7.232;2022-10-16T12:21:05;5.13;;;0.93;;
2972;SDS011;1496;51.404;7.232;2022-10-16T12:23:36;5.23;;;1.57;;
2972;SDS011;1496;51.404;7.232;2022-10-16T12:26:04;3.40;;;1.10;;
2972;SDS011;1496;51.404;7.232;2022-10-16T12:28:31;1.73;;;0.87;;
2972;SDS011;1496;51.404;7.232;2022-10-16T12:31:02;1.97;;;0.70;;
2972;SDS011;1496;51.404;7.232;2022-10-16T12:33:31;2.57;;;1.03;;
2972;SDS011;1496;51.404;7.232;2022-10-16T12:35:59;1.97;;;0.80;;
2972;SDS011;1496;51.404;7.232;2022-10-16T12:38:28;2.20;;;0.80;;
2972;SDS011;1496;51.404;7.232;2022-10-16T12:41:04;2.07;;;0.80;;
2972;SDS011;1496;51.404;7.232;2022-10-16T12:43:46;6.87;;;0.90;;
2972;SDS011;1496;51.404;7.232;2022-10-16T12:48:39;2.70;;;0.90;;
2972;SDS011;1496;51.404;7.232;2022-10-16T12:51:32;1.97;;;0.70;;
2972;SDS011;1496;51.404;7.232;2022-10-16T12:54:04;2.20;;;0.70;;
2972;SDS011;1496;51.404;7.232;2022-10-16T12:56:41;1.67;;;0.70;;
2972;SDS011;1496;51.404;7.232;2022-10-16T13:02:18;2.37;;;0.70;;
2972;SDS011;1496;51.404;7.232;2022-10-16T13:10:40;1.67;;;0.80;;
2972;SDS011;1496;51.404;7.232;2022-10-16T13:13:44;2.80;;;0.90;;
2972;SDS011;1496;51.404;7.232;2022-10-16T13:22:03;3.93;;;0.90;;
2972;SDS011;1496;51.404;7.232;2022-10-16T13:24:52;1.70;;;0.73;;
2972;SDS011;1496;51.404;7.232;2022-10-16T13:27:39;4.93;;;0.90;;
2972;SDS011;1496;51.404;7.232;2022-10-16T13:30:19;3.43;;;0.70;;
2972;SDS011;1496;51.404;7.232;2022-10-16T13:32:50;3.43;;;1.00;;
2972;SDS011;1496;51.404;7.232;2022-10-16T13:35:29;4.90;;;0.83;;
2972;SDS011;1496;51.404;7.232;2022-10-16T13:38:05;1.67;;;0.83;;
2972;SDS011;1496;51.404;7.232;2022-10-16T13:40:58;14.23;;;3.07;;
2972;SDS011;1496;51.404;7.232;2022-10-16T13:46:00;2.60;;;0.90;;
2972;SDS011;1496;51.404;7.232;2022-10-16T13:48:28;2.37;;;0.80;;
2972;SDS011;1496;51.404;7.232;2022-10-16T13:53:51;2.87;;;0.73;;
2972;SDS011;1496;51.404;7.232;2022-10-16T13:56:20;4.73;;;1.20;;
2972;SDS011;1496;51.404;7.232;2022-10-16T13:59:49;2.03;;;0.80;;
2972;SDS011;1496;51.404;7.232;2022-10-16T14:01:58;2.43;;;0.90;;
2972;SDS011;1496;51.404;7.232;2022-10-16T14:04:25;1.37;;;0.63;;
2972;SDS011;1496;51.404;7.232;2022-10-16T14:06:56;4.10;;;1.20;;
2972;SDS011;1496;51.404;7.232;2022-10-16T14:14:23;2.80;;;0.80;;
2972;SDS011;1496;51.404;7.232;2022-10-16T14:16:49;3.30;;;0.80;;
2972;SDS011;1496;51.404;7.232;2022-10-16T14:21:50;3.27;;;0.93;;
2972;SDS011;1496;51.404;7.232;2022-10-16T14:24:26;5.77;;;1.10;;
2972;SDS011;1496;51.404;7.232;2022-10-16T14:26:57;2.10;;;0.70;;
2972;SDS011;1496;51.404;7.232;2022-10-16T14:29:24;3.60;;;0.90;;
2972;SDS011;1496;51.404;7.232;2022-10-16T14:31:54;2.13;;;0.60;;
2972;SDS011;1496;51.404;7.232;2022-10-16T14:34:32;3.00;;;0.73;;
2972;SDS011;1496;51.404;7.232;2022-10-16T14:37:13;5.23;;;0.90;;
2972;SDS011;1496;51.404;7.232;2022-10-16T14:39:49;3.33;;;0.80;;
2972;SDS011;1496;51.404;7.232;2022-10-16T14:42:19;4.77;;;1.30;;
2972;SDS011;1496;51.404;7.232;2022-10-16T14:44:48;3.27;;;1.03;;
2972;SDS011;1496;51.404;7.232;2022-10-16T14:47:18;2.70;;;0.97;;
2972;SDS011;1496;51.404;7.232;2022-10-16T14:49:49;2.17;;;0.97;;
2972;SDS011;1496;51.404;7.232;2022-10-16T14:52:16;2.33;;;0.90;;
2972;SDS011;1496;51.404;7.232;2022-10-16T14:54:42;4.50;;;0.80;;
2972;SDS011;1496;51.404;7.232;2022-10-16T14:57:15;1.53;;;0.87;;
2972;SDS011;1496;51.404;7.232;2022-10-16T14:59:43;2.13;;;0.83;;
2972;SDS011;1496;51.404;7.232;2022-10-16T15:02:18;2.87;;;0.87;;
2972;SDS011;1496;51.404;7.232;2022-10-16T15:04:55;2.37;;;0.97;;
2972;SDS011;1496;51.404;7.232;2022-10-16T15:07:20;6.70;;;1.00;;
2972;SDS011;1496;51.404;7.232;2022-10-16T15:09:46;1.90;;;0.87;;
2972;SDS011;1496;51.404;7.232;2022-10-16T15:12:12;1.10;;;0.63;;
2972;SDS011;1496;51.404;7.232;2022-10-16T15:14:38;1.63;;;1.10;;
2972;SDS011;1496;51.404;7.232;2022-10-16T15:17:04;2.10;;;1.00;;
2972;SDS011;1496;51.404;7.232;2022-10-16T15:19:30;2.10;;;0.90;;
2972;SDS011;1496;51.404;7.232;2022-10-16T15:21:55;2.80;;;0.80;;
2972;SDS011;1496;51.404;7.232;2022-10-16T15:24:21;2.80;;;1.10;;
2972;SDS011;1496;51.404;7.232;2022-10-16T15:26:47;3.43;;;2.03;;
2972;SDS011;1496;51.404;7.232;2022-10-16T15:29:14;1.93;;;0.90;;
2972;SDS011;1496;51.404;7.232;2022-10-16T15:31:41;3.17;;;1.30;;
2972;SDS011;1496;51.404;7.232;2022-10-16T15:34:12;1.70;;;1.03;;
2972;SDS011;1496;51.404;7.232;2022-10-16T15:36:38;3.70;;;1.23;;
2972;SDS011;1496;51.404;7.232;2022-10-16T15:39:05;2.20;;;0.90;;
2972;SDS011;1496;51.404;7.232;2022-10-16T15:41:35;1.70;;;1.17;;
2972;SDS011;1496;51.404;7.232;2022-10-16T15:44:01;2.33;;;1.00;;
2972;SDS011;1496;51.404;7.232;2022-10-16T15:46:36;3.63;;;1.20;;
2972;SDS011;1496;51.404;7.232;2022-10-16T15:49:04;2.00;;;1.17;;
2972;SDS011;1496;51.404;7.232;2022-10-16T15:51:40;1.43;;;0.90;;
2972;SDS011;1496;51.404;7.232;2022-10-16T15:54:06;3.67;;;0.90;;
2972;SDS011;1496;51.404;7.232;2022-10-16T15:56:32;5.83;;;1.40;;
2972;SDS011;1496;51.404;7.232;2022-10-16T15:59:01;4.80;;;1.20;;
2972;SDS011;1496;51.404;7.232;2022-10-16T16:01:27;2.90;;;1.47;;
2972;SDS011;1496;51.404;7.232;2022-10-16T16:03:54;8.00;;;1.07;;
2972;SDS011;1496;51.404;7.232;2022-10-16T16:06:20;2.73;;;1.30;;
2972;SDS011;1496;51.404;7.232;2022-10-16T16:08:48;9.43;;;1.60;;
2972;SDS011;1496;51.404;7.232;2022-10-16T16:11:15;5.10;;;1.73;;
2972;SDS011;1496;51.404;7.232;2022-10-16T16:13:42;4.70;;;1.20;;
2972;SDS011;1496;51.404;7.232;2022-10-16T16:16:10;3.57;;;1.27;;
2972;SDS011;1496;51.404;7.232;2022-10-16T16:18:37;2.00;;;1.23;;
2972;SDS011;1496;51.404;7.232;2022-10-16T16:21:04;2.53;;;1.07;;
2972;SDS011;1496;51.404;7.232;2022-10-16T16:23:30;2.67;;;1.17;;
2972;SDS011;1496;51.404;7.232;2022-10-16T16:26:03;3.70;;;1.00;;
2972;SDS011;1496;51.404;7.232;2022-10-16T16:28:29;1.50;;;1.00;;
2972;SDS011;1496;51.404;7.232;2022-10-16T16:30:55;3.63;;;1.00;;
2972;SDS011;1496;51.404;7.232;2022-10-16T16:33:21;2.30;;;1.13;;
2972;SDS011;1496;51.404;7.232;2022-10-16T16:35:46;4.23;;;1.20;;
2972;SDS011;1496;51.404;7.232;2022-10-16T16:38:12;3.33;;;1.43;;
2972;SDS011;1496;51.404;7.232;2022-10-16T16:40:38;3.27;;;1.37;;
2972;SDS011;1496;51.404;7.232;2022-10-16T16:43:04;3.47;;;1.30;;
2972;SDS011;1496;51.404;7.232;2022-10-16T16:45:29;1.40;;;0.90;;
2972;SDS011;1496;51.404;7.232;2022-10-16T16:47:55;5.67;;;1.33;;
2972;SDS011;1496;51.404;7.232;2022-10-16T16:50:21;7.93;;;1.50;;
2972;SDS011;1496;51.404;7.232;2022-10-16T16:52:46;2.57;;;1.00;;
2972;SDS011;1496;51.404;7.232;2022-10-16T16:55:12;2.33;;;1.23;;
2972;SDS011;1496;51.404;7.232;2022-10-16T16:57:38;1.40;;;1.07;;
2972;SDS011;1496;51.404;7.232;2022-10-16T17:00:03;3.10;;;1.20;;
2972;SDS011;1496;51.404;7.232;2022-10-16T17:02:29;6.50;;;2.10;;
2972;SDS011;1496;51.404;7.232;2022-10-16T17:04:58;4.37;;;2.77;;
2972;SDS011;1496;51.404;7.232;2022-10-16T17:07:24;11.80;;;2.33;;
2972;SDS011;1496;51.404;7.232;2022-10-16T17:09:51;3.83;;;1.70;;
2972;SDS011;1496;51.404;7.232;2022-10-16T17:12:17;4.47;;;1.77;;
2972;SDS011;1496;51.404;7.232;2022-10-16T17:14:43;2.20;;;1.60;;
2972;SDS011;1496;51.404;7.232;2022-10-16T17:17:08;7.80;;;1.73;;
2972;SDS011;1496;51.404;7.232;2022-10-16T17:19:34;4.10;;;1.77;;
2972;SDS011;1496;51.404;7.232;2022-10-16T17:22:00;6.60;;;1.97;;
2972;SDS011;1496;51.404;7.232;2022-10-16T17:24:25;3.00;;;1.50;;
2972;SDS011;1496;51.404;7.232;2022-10-16T17:26:51;5.03;;;1.30;;
2972;SDS011;1496;51.404;7.232;2022-10-16T17:29:17;4.30;;;1.63;;